GLO1701 SBSR-SBBR
Flight info
| Callsign | GLO1701 |
|---|---|
| Flight time | 0h 59m |
| Altitude | 35000 |
| Route | ASTOB UZ5 EDMIN DCT PABIN |
| Aircraft | B738/M-SDE2E3FGHIRWXY/LB1 |
Departure
| Time | 2026-05-07 16:49 |
|---|---|
| Airport | Prof. Eribelto Manoel Reino State Airport (SBSR) |
Arrival
| Time | 2026-05-07 17:48 |
|---|---|
| Airport | Presidente Juscelino Kubitschek International Airport (SBBR) |
| Time | Latitude | Longitude | Altitude | Speed | Heading |
|---|---|---|---|---|---|
| 2026-05-07 16:07 | -20.81236 | -49.40359 | 1760 ft | 0 kts | 322° |
| 2026-05-07 16:40 | -20.81244 | -49.40352 | 1760 ft | 2 kts | 321° |
| 2026-05-07 16:40 | -20.81257 | -49.40341 | 1764 ft | 2 kts | 322° |
| 2026-05-07 16:40 | -20.81270 | -49.40330 | 1764 ft | 2 kts | 322° |
| 2026-05-07 16:41 | -20.81283 | -49.40319 | 1765 ft | 2 kts | 312° |
| 2026-05-07 16:41 | -20.81292 | -49.40304 | 1764 ft | 2 kts | 283° |
| 2026-05-07 16:41 | -20.81292 | -49.40286 | 1761 ft | 2 kts | 250° |
| 2026-05-07 16:41 | -20.81287 | -49.40275 | 1764 ft | 1 kts | 237° |
| 2026-05-07 16:42 | -20.81285 | -49.40272 | 1764 ft | 0 kts | 234° |
| 2026-05-07 16:43 | -20.81296 | -49.40287 | 1761 ft | 8 kts | 232° |
| 2026-05-07 16:44 | -20.81357 | -49.40370 | 1762 ft | 20 kts | 230° |
| 2026-05-07 16:44 | -20.81454 | -49.40494 | 1761 ft | 22 kts | 231° |
| 2026-05-07 16:44 | -20.81533 | -49.40626 | 1763 ft | 21 kts | 273° |
| 2026-05-07 16:44 | -20.81525 | -49.40715 | 1763 ft | 11 kts | 227° |
| 2026-05-07 16:45 | -20.81575 | -49.40780 | 1762 ft | 12 kts | 231° |
| 2026-05-07 16:45 | -20.81644 | -49.40872 | 1760 ft | 20 kts | 231° |
| 2026-05-07 16:45 | -20.81742 | -49.41000 | 1762 ft | 24 kts | 231° |
| 2026-05-07 16:45 | -20.81844 | -49.41136 | 1764 ft | 23 kts | 230° |
| 2026-05-07 16:46 | -20.81947 | -49.41252 | 1763 ft | 19 kts | 226° |
| 2026-05-07 16:46 | -20.82031 | -49.41302 | 1760 ft | 11 kts | 178° |
| 2026-05-07 16:46 | -20.82071 | -49.41296 | 1759 ft | 0 kts | 171° |
| 2026-05-07 16:47 | -20.82073 | -49.41295 | 1759 ft | 2 kts | 171° |
| 2026-05-07 16:47 | -20.82113 | -49.41272 | 1761 ft | 12 kts | 119° |
| 2026-05-07 16:48 | -20.82082 | -49.41191 | 1763 ft | 12 kts | 52° |
| 2026-05-07 16:48 | -20.81939 | -49.41000 | 1761 ft | 72 kts | 51° |
| 2026-05-07 16:48 | -20.81450 | -49.40355 | 1765 ft | 146 kts | 50° |
| 2026-05-07 16:48 | -20.80760 | -49.39402 | 2224 ft | 178 kts | 54° |
| 2026-05-07 16:49 | -20.80162 | -49.38141 | 2890 ft | 197 kts | 70° |
| 2026-05-07 16:49 | -20.79890 | -49.36704 | 3743 ft | 203 kts | 78° |
| 2026-05-07 16:49 | -20.79577 | -49.35163 | 4129 ft | 226 kts | 76° |
| 2026-05-07 16:49 | -20.79232 | -49.33405 | 4429 ft | 255 kts | 77° |
| 2026-05-07 16:50 | -20.78878 | -49.31505 | 5180 ft | 266 kts | 77° |
| 2026-05-07 16:50 | -20.78512 | -49.29595 | 6217 ft | 263 kts | 77° |
| 2026-05-07 16:50 | -20.78122 | -49.27641 | 7076 ft | 268 kts | 76° |
| 2026-05-07 16:50 | -20.77721 | -49.25702 | 7929 ft | 272 kts | 76° |
| 2026-05-07 16:51 | -20.77296 | -49.23701 | 8802 ft | 274 kts | 76° |
| 2026-05-07 16:51 | -20.76868 | -49.21721 | 9711 ft | 278 kts | 76° |
| 2026-05-07 16:51 | -20.76422 | -49.19687 | 10456 ft | 286 kts | 76° |
| 2026-05-07 16:51 | -20.75940 | -49.17518 | 10652 ft | 312 kts | 76° |
| 2026-05-07 16:52 | -20.75426 | -49.15211 | 11145 ft | 324 kts | 76° |
| 2026-05-07 16:52 | -20.74899 | -49.12860 | 11870 ft | 330 kts | 76° |
| 2026-05-07 16:52 | -20.74358 | -49.10445 | 12569 ft | 335 kts | 77° |
| 2026-05-07 16:52 | -20.73816 | -49.08026 | 13259 ft | 340 kts | 77° |
| 2026-05-07 16:53 | -20.73255 | -49.05533 | 13877 ft | 346 kts | 77° |
| 2026-05-07 16:53 | -20.72691 | -49.03038 | 14466 ft | 350 kts | 77° |
| 2026-05-07 16:53 | -20.72116 | -49.00487 | 15076 ft | 354 kts | 77° |
| 2026-05-07 16:53 | -20.71537 | -48.97925 | 15662 ft | 358 kts | 77° |
| 2026-05-07 16:54 | -20.70947 | -48.95313 | 16265 ft | 363 kts | 77° |
| 2026-05-07 16:54 | -20.70349 | -48.92669 | 16850 ft | 367 kts | 77° |
| 2026-05-07 16:54 | -20.69750 | -48.90021 | 17413 ft | 372 kts | 77° |
| 2026-05-07 16:54 | -20.69123 | -48.87307 | 17998 ft | 377 kts | 74° |
| 2026-05-07 16:55 | -20.67970 | -48.84818 | 18505 ft | 383 kts | 53° |
| 2026-05-07 16:55 | -20.65991 | -48.82880 | 18996 ft | 389 kts | 32° |
| 2026-05-07 16:55 | -20.63497 | -48.81773 | 19482 ft | 395 kts | 12° |
| 2026-05-07 16:55 | -20.60772 | -48.81387 | 19998 ft | 398 kts | 6° |
| 2026-05-07 16:56 | -20.57973 | -48.81118 | 20480 ft | 402 kts | 5° |
| 2026-05-07 16:56 | -20.55194 | -48.80876 | 20943 ft | 407 kts | 5° |
| 2026-05-07 16:56 | -20.49491 | -48.80347 | 21878 ft | 415 kts | 6° |
| 2026-05-07 16:57 | -20.46591 | -48.80056 | 22331 ft | 419 kts | 6° |
| 2026-05-07 16:57 | -20.43662 | -48.79753 | 22782 ft | 424 kts | 6° |
| 2026-05-07 16:57 | -20.40711 | -48.79443 | 23222 ft | 428 kts | 6° |
| 2026-05-07 16:57 | -20.37734 | -48.79130 | 23638 ft | 432 kts | 6° |
| 2026-05-07 16:58 | -20.34738 | -48.78816 | 23996 ft | 436 kts | 6° |
| 2026-05-07 16:58 | -20.31724 | -48.78500 | 24355 ft | 439 kts | 6° |
| 2026-05-07 16:58 | -20.28640 | -48.78178 | 24720 ft | 443 kts | 6° |
| 2026-05-07 16:58 | -20.25589 | -48.77859 | 25070 ft | 447 kts | 5° |
| 2026-05-07 16:59 | -20.22459 | -48.77533 | 25442 ft | 450 kts | 5° |
| 2026-05-07 16:59 | -20.19350 | -48.77209 | 25826 ft | 453 kts | 5° |
| 2026-05-07 16:59 | -20.16171 | -48.76877 | 26165 ft | 457 kts | 5° |
| 2026-05-07 16:59 | -20.12982 | -48.76545 | 26506 ft | 461 kts | 5° |
| 2026-05-07 17:00 | -20.09822 | -48.76216 | 26845 ft | 464 kts | 5° |
| 2026-05-07 17:00 | -20.06585 | -48.75879 | 27176 ft | 467 kts | 5° |
| 2026-05-07 17:00 | -20.03323 | -48.75540 | 27509 ft | 471 kts | 5° |
| 2026-05-07 17:00 | -20.00058 | -48.75025 | 27820 ft | 475 kts | 11° |
| 2026-05-07 17:01 | -19.96849 | -48.74255 | 28131 ft | 479 kts | 13° |
| 2026-05-07 17:01 | -19.93578 | -48.73395 | 28441 ft | 483 kts | 14° |
| 2026-05-07 17:01 | -19.90324 | -48.72516 | 28741 ft | 486 kts | 13° |
| 2026-05-07 17:01 | -19.87027 | -48.71631 | 29030 ft | 490 kts | 13° |
| 2026-05-07 17:02 | -19.83726 | -48.70759 | 29350 ft | 493 kts | 13° |
| 2026-05-07 17:02 | -19.80360 | -48.69886 | 29667 ft | 495 kts | 13° |
| 2026-05-07 17:02 | -19.77034 | -48.69035 | 29942 ft | 499 kts | 12° |
| 2026-05-07 17:02 | -19.73636 | -48.68173 | 30182 ft | 502 kts | 12° |
| 2026-05-07 17:03 | -19.70234 | -48.67313 | 30467 ft | 503 kts | 12° |
| 2026-05-07 17:03 | -19.66830 | -48.66454 | 30837 ft | 502 kts | 12° |
| 2026-05-07 17:03 | -19.63416 | -48.65593 | 31225 ft | 501 kts | 12° |
| 2026-05-07 17:03 | -19.60027 | -48.64737 | 31582 ft | 501 kts | 12° |
| 2026-05-07 17:04 | -19.56638 | -48.63881 | 31927 ft | 501 kts | 12° |
| 2026-05-07 17:04 | -19.53246 | -48.63025 | 32272 ft | 501 kts | 12° |
| 2026-05-07 17:04 | -19.49856 | -48.62169 | 32617 ft | 501 kts | 12° |
| 2026-05-07 17:04 | -19.46499 | -48.61321 | 32903 ft | 501 kts | 12° |
| 2026-05-07 17:05 | -19.43094 | -48.60462 | 33225 ft | 502 kts | 12° |
| 2026-05-07 17:05 | -19.39688 | -48.59603 | 33566 ft | 501 kts | 12° |
| 2026-05-07 17:05 | -19.36300 | -48.58749 | 33951 ft | 500 kts | 12° |
| 2026-05-07 17:05 | -19.32922 | -48.57898 | 34284 ft | 498 kts | 12° |
| 2026-05-07 17:06 | -19.29599 | -48.57061 | 34621 ft | 496 kts | 12° |
| 2026-05-07 17:06 | -19.26260 | -48.56220 | 34951 ft | 494 kts | 12° |
| 2026-05-07 17:06 | -19.19527 | -48.54527 | 34988 ft | 499 kts | 12° |
| 2026-05-07 17:07 | -19.12791 | -48.52833 | 34973 ft | 493 kts | 12° |
| 2026-05-07 17:07 | -19.06121 | -48.51158 | 35016 ft | 491 kts | 12° |
| 2026-05-07 17:08 | -18.99474 | -48.49490 | 35037 ft | 491 kts | 12° |
| 2026-05-07 17:08 | -18.92860 | -48.47832 | 35053 ft | 491 kts | 12° |
| 2026-05-07 17:09 | -18.86212 | -48.46166 | 35064 ft | 491 kts | 12° |
| 2026-05-07 17:09 | -18.79539 | -48.44496 | 35063 ft | 492 kts | 12° |
| 2026-05-07 17:10 | -18.72915 | -48.42839 | 35055 ft | 492 kts | 12° |
| 2026-05-07 17:10 | -18.66252 | -48.41174 | 35029 ft | 492 kts | 12° |
| 2026-05-07 17:11 | -18.59585 | -48.39509 | 35004 ft | 493 kts | 12° |
| 2026-05-07 17:11 | -18.52903 | -48.37841 | 34984 ft | 493 kts | 12° |
| 2026-05-07 17:12 | -18.46225 | -48.36176 | 34984 ft | 493 kts | 12° |
| 2026-05-07 17:12 | -18.39536 | -48.34509 | 34987 ft | 493 kts | 12° |
| 2026-05-07 17:13 | -18.32863 | -48.32848 | 34984 ft | 493 kts | 12° |
| 2026-05-07 17:13 | -18.26223 | -48.31196 | 34964 ft | 485 kts | 12° |
| 2026-05-07 17:14 | -18.19728 | -48.29581 | 34975 ft | 479 kts | 12° |
| 2026-05-07 17:14 | -18.13246 | -48.27971 | 34983 ft | 478 kts | 12° |
| 2026-05-07 17:15 | -18.06906 | -48.26396 | 34955 ft | 454 kts | 12° |
| 2026-05-07 17:15 | -18.03870 | -48.25642 | 34963 ft | 441 kts | 12° |
| 2026-05-07 17:15 | -18.00922 | -48.24911 | 34961 ft | 429 kts | 12° |
| 2026-05-07 17:16 | -17.95138 | -48.23479 | 34998 ft | 435 kts | 12° |
| 2026-05-07 17:16 | -17.89153 | -48.22000 | 34995 ft | 448 kts | 12° |
| 2026-05-07 17:17 | -17.83044 | -48.20486 | 34986 ft | 452 kts | 12° |
| 2026-05-07 17:17 | -17.76963 | -48.19122 | 34968 ft | 440 kts | 6° |
| 2026-05-07 17:18 | -17.70927 | -48.18453 | 34986 ft | 439 kts | 2° |
| 2026-05-07 17:18 | -17.65810 | -48.17999 | 35005 ft | 442 kts | 2° |
| 2026-05-07 17:19 | -17.59671 | -48.17395 | 34983 ft | 444 kts | 3° |
| 2026-05-07 17:19 | -17.53496 | -48.16733 | 34979 ft | 446 kts | 4° |
| 2026-05-07 17:20 | -17.47339 | -48.16055 | 34983 ft | 446 kts | 4° |
| 2026-05-07 17:20 | -17.44253 | -48.15714 | 34869 ft | 446 kts | 4° |
| 2026-05-07 17:20 | -17.41156 | -48.15373 | 34421 ft | 447 kts | 4° |
| 2026-05-07 17:21 | -17.38068 | -48.15033 | 34048 ft | 445 kts | 4° |
| 2026-05-07 17:21 | -17.35024 | -48.14699 | 33629 ft | 444 kts | 4° |
| 2026-05-07 17:21 | -17.31950 | -48.14362 | 33196 ft | 443 kts | 4° |
| 2026-05-07 17:21 | -17.28884 | -48.14025 | 32773 ft | 442 kts | 4° |
| 2026-05-07 17:22 | -17.25824 | -48.13690 | 32357 ft | 441 kts | 4° |
| 2026-05-07 17:22 | -17.22766 | -48.13355 | 31877 ft | 442 kts | 4° |
| 2026-05-07 17:22 | -17.19690 | -48.13019 | 31403 ft | 443 kts | 4° |
| 2026-05-07 17:22 | -17.16617 | -48.12683 | 30942 ft | 444 kts | 5° |
| 2026-05-07 17:23 | -17.13584 | -48.12351 | 30666 ft | 439 kts | 5° |
| 2026-05-07 17:23 | -17.10559 | -48.12020 | 30380 ft | 435 kts | 5° |
| 2026-05-07 17:23 | -17.07559 | -48.11691 | 30100 ft | 431 kts | 4° |
| 2026-05-07 17:23 | -17.04593 | -48.11367 | 29775 ft | 426 kts | 5° |
| 2026-05-07 17:24 | -17.01657 | -48.11046 | 29439 ft | 422 kts | 5° |
| 2026-05-07 17:24 | -16.98747 | -48.10729 | 29138 ft | 417 kts | 5° |
| 2026-05-07 17:24 | -16.95912 | -48.10419 | 28822 ft | 413 kts | 5° |
| 2026-05-07 17:24 | -16.93067 | -48.10109 | 28508 ft | 409 kts | 5° |
| 2026-05-07 17:25 | -16.90256 | -48.09802 | 28202 ft | 405 kts | 5° |
| 2026-05-07 17:25 | -16.87465 | -48.09498 | 27896 ft | 401 kts | 5° |
| 2026-05-07 17:25 | -16.84701 | -48.09196 | 27597 ft | 397 kts | 5° |
| 2026-05-07 17:25 | -16.81964 | -48.08898 | 27299 ft | 393 kts | 5° |
| 2026-05-07 17:26 | -16.79245 | -48.08603 | 27007 ft | 390 kts | 5° |
| 2026-05-07 17:26 | -16.76554 | -48.08586 | 26692 ft | 385 kts | 351° |
| 2026-05-07 17:26 | -16.73946 | -48.09102 | 26424 ft | 379 kts | 346° |
| 2026-05-07 17:26 | -16.71383 | -48.09706 | 26133 ft | 376 kts | 345° |
| 2026-05-07 17:27 | -16.68871 | -48.10311 | 25851 ft | 373 kts | 345° |
| 2026-05-07 17:27 | -16.66349 | -48.10912 | 25573 ft | 370 kts | 346° |
| 2026-05-07 17:27 | -16.63848 | -48.11498 | 25292 ft | 367 kts | 346° |
| 2026-05-07 17:27 | -16.61360 | -48.12072 | 25027 ft | 365 kts | 346° |
| 2026-05-07 17:28 | -16.58881 | -48.12638 | 24759 ft | 362 kts | 347° |
| 2026-05-07 17:28 | -16.56423 | -48.13197 | 24507 ft | 360 kts | 347° |
| 2026-05-07 17:28 | -16.53986 | -48.13748 | 24243 ft | 357 kts | 348° |
| 2026-05-07 17:28 | -16.51559 | -48.14297 | 23972 ft | 355 kts | 348° |
| 2026-05-07 17:29 | -16.49154 | -48.14841 | 23714 ft | 352 kts | 348° |
| 2026-05-07 17:29 | -16.46785 | -48.15376 | 23425 ft | 350 kts | 348° |
| 2026-05-07 17:29 | -16.44408 | -48.15912 | 23120 ft | 348 kts | 348° |
| 2026-05-07 17:29 | -16.42047 | -48.16446 | 22806 ft | 346 kts | 348° |
| 2026-05-07 17:30 | -16.39704 | -48.16975 | 22512 ft | 343 kts | 348° |
| 2026-05-07 17:30 | -16.37365 | -48.17504 | 22205 ft | 341 kts | 348° |
| 2026-05-07 17:30 | -16.35073 | -48.18021 | 21908 ft | 339 kts | 348° |
| 2026-05-07 17:30 | -16.32768 | -48.18541 | 21611 ft | 338 kts | 348° |
| 2026-05-07 17:31 | -16.30475 | -48.19058 | 21314 ft | 336 kts | 348° |
| 2026-05-07 17:31 | -16.28194 | -48.19572 | 21034 ft | 334 kts | 348° |
| 2026-05-07 17:31 | -16.25926 | -48.20081 | 20760 ft | 332 kts | 348° |
| 2026-05-07 17:31 | -16.23696 | -48.20581 | 20471 ft | 331 kts | 348° |
| 2026-05-07 17:32 | -16.21450 | -48.21085 | 20190 ft | 329 kts | 348° |
| 2026-05-07 17:32 | -16.19213 | -48.21586 | 19910 ft | 328 kts | 348° |
| 2026-05-07 17:32 | -16.16993 | -48.22084 | 19634 ft | 326 kts | 348° |
| 2026-05-07 17:32 | -16.14751 | -48.22304 | 19328 ft | 323 kts | 9° |
| 2026-05-07 17:33 | -16.12564 | -48.21835 | 19097 ft | 318 kts | 15° |
| 2026-05-07 17:33 | -16.10419 | -48.21265 | 18827 ft | 317 kts | 16° |
| 2026-05-07 17:33 | -16.08312 | -48.20694 | 18570 ft | 316 kts | 16° |
| 2026-05-07 17:33 | -16.06185 | -48.20128 | 18309 ft | 315 kts | 16° |
| 2026-05-07 17:34 | -16.04063 | -48.19576 | 18019 ft | 313 kts | 15° |
| 2026-05-07 17:34 | -16.01949 | -48.19031 | 17733 ft | 312 kts | 15° |
| 2026-05-07 17:34 | -15.99844 | -48.18491 | 17426 ft | 311 kts | 15° |
| 2026-05-07 17:34 | -15.97714 | -48.18142 | 17112 ft | 312 kts | 358° |
| 2026-05-07 17:35 | -15.95622 | -48.18693 | 16838 ft | 312 kts | 333° |
| 2026-05-07 17:35 | -15.93930 | -48.20076 | 16538 ft | 311 kts | 309° |
| 2026-05-07 17:35 | -15.92916 | -48.22044 | 16237 ft | 310 kts | 284° |
| 2026-05-07 17:35 | -15.92748 | -48.24251 | 15933 ft | 307 kts | 261° |
| 2026-05-07 17:36 | -15.93436 | -48.26320 | 15638 ft | 304 kts | 237° |
| 2026-05-07 17:36 | -15.94818 | -48.27909 | 15356 ft | 300 kts | 215° |
| 2026-05-07 17:36 | -15.96651 | -48.28883 | 15071 ft | 296 kts | 195° |
| 2026-05-07 17:36 | -15.98649 | -48.29391 | 14815 ft | 295 kts | 191° |
| 2026-05-07 17:37 | -16.00656 | -48.29847 | 14526 ft | 294 kts | 191° |
| 2026-05-07 17:37 | -16.02656 | -48.30308 | 14256 ft | 294 kts | 192° |
| 2026-05-07 17:37 | -16.04634 | -48.30774 | 13977 ft | 293 kts | 192° |
| 2026-05-07 17:37 | -16.06653 | -48.31001 | 13661 ft | 291 kts | 172° |
| 2026-05-07 17:38 | -16.08576 | -48.30398 | 13381 ft | 287 kts | 149° |
| 2026-05-07 17:38 | -16.10109 | -48.29128 | 13088 ft | 283 kts | 127° |
| 2026-05-07 17:38 | -16.11093 | -48.27368 | 12792 ft | 279 kts | 106° |
| 2026-05-07 17:38 | -16.11375 | -48.25417 | 12481 ft | 275 kts | 84° |
| 2026-05-07 17:39 | -16.10944 | -48.23497 | 12195 ft | 271 kts | 63° |
| 2026-05-07 17:39 | -16.09897 | -48.21904 | 11901 ft | 269 kts | 44° |
| 2026-05-07 17:39 | -16.08426 | -48.20714 | 11617 ft | 267 kts | 27° |
| 2026-05-07 17:39 | -16.06688 | -48.20098 | 11348 ft | 266 kts | 14° |
| 2026-05-07 17:40 | -16.04883 | -48.19661 | 11146 ft | 263 kts | 13° |
| 2026-05-07 17:40 | -16.03134 | -48.19252 | 11054 ft | 250 kts | 12° |
| 2026-05-07 17:40 | -16.01495 | -48.18866 | 10947 ft | 239 kts | 13° |
| 2026-05-07 17:40 | -15.99890 | -48.18484 | 10729 ft | 231 kts | 12° |
| 2026-05-07 17:41 | -15.98335 | -48.18108 | 10446 ft | 225 kts | 12° |
| 2026-05-07 17:41 | -15.96863 | -48.17753 | 10362 ft | 214 kts | 12° |
| 2026-05-07 17:41 | -15.95404 | -48.17695 | 10112 ft | 211 kts | 341° |
| 2026-05-07 17:41 | -15.94088 | -48.18339 | 9908 ft | 209 kts | 335° |
| 2026-05-07 17:42 | -15.92767 | -48.18971 | 9501 ft | 211 kts | 339° |
| 2026-05-07 17:42 | -15.91426 | -48.19588 | 9109 ft | 208 kts | 338° |
| 2026-05-07 17:42 | -15.90050 | -48.19810 | 8700 ft | 203 kts | 12° |
| 2026-05-07 17:42 | -15.88813 | -48.19152 | 8306 ft | 202 kts | 43° |
| 2026-05-07 17:43 | -15.88054 | -48.17925 | 7931 ft | 205 kts | 71° |
| 2026-05-07 17:43 | -15.87829 | -48.16473 | 7567 ft | 207 kts | 83° |
| 2026-05-07 17:43 | -15.87740 | -48.14976 | 7213 ft | 208 kts | 84° |
| 2026-05-07 17:43 | -15.87660 | -48.13460 | 6831 ft | 209 kts | 85° |
| 2026-05-07 17:44 | -15.87576 | -48.11984 | 6554 ft | 204 kts | 84° |
| 2026-05-07 17:44 | -15.87485 | -48.10499 | 6140 ft | 207 kts | 83° |
| 2026-05-07 17:44 | -15.87383 | -48.09011 | 5784 ft | 205 kts | 84° |
| 2026-05-07 17:44 | -15.87299 | -48.07545 | 5527 ft | 198 kts | 84° |
| 2026-05-07 17:45 | -15.87221 | -48.06178 | 5396 ft | 183 kts | 83° |
| 2026-05-07 17:45 | -15.87140 | -48.04896 | 5412 ft | 175 kts | 83° |
| 2026-05-07 17:45 | -15.87063 | -48.03667 | 5777 ft | 169 kts | 84° |
| 2026-05-07 17:45 | -15.87031 | -48.02410 | 5534 ft | 175 kts | 87° |
| 2026-05-07 17:46 | -15.87010 | -48.01118 | 5155 ft | 188 kts | 84° |
| 2026-05-07 17:46 | -15.86941 | -47.99840 | 5131 ft | 161 kts | 83° |
| 2026-05-07 17:46 | -15.86836 | -47.98788 | 5098 ft | 135 kts | 79° |
| 2026-05-07 17:46 | -15.86735 | -47.97850 | 4888 ft | 127 kts | 83° |
| 2026-05-07 17:47 | -15.86705 | -47.96907 | 4474 ft | 133 kts | 85° |
| 2026-05-07 17:47 | -15.86599 | -47.96000 | 4361 ft | 121 kts | 76° |
| 2026-05-07 17:47 | -15.86512 | -47.95152 | 4069 ft | 118 kts | 87° |
| 2026-05-07 17:47 | -15.86496 | -47.94285 | 3808 ft | 119 kts | 83° |
| 2026-05-07 17:48 | -15.86396 | -47.93424 | 3640 ft | 118 kts | 83° |
| 2026-05-07 17:48 | -15.86347 | -47.92623 | 3462 ft | 101 kts | 85° |
| 2026-05-07 17:48 | -15.86310 | -47.92054 | 3465 ft | 58 kts | 86° |
| 2026-05-07 17:48 | -15.86295 | -47.91753 | 3462 ft | 36 kts | 88° |
| 2026-05-07 17:49 | -15.86278 | -47.91515 | 3463 ft | 29 kts | 84° |
| 2026-05-07 17:49 | -15.86301 | -47.91375 | 3463 ft | 8 kts | 161° |
| 2026-05-07 17:49 | -15.86345 | -47.91396 | 3463 ft | 7 kts | 230° |
| 2026-05-07 17:49 | -15.86373 | -47.91440 | 3463 ft | 7 kts | 237° |
| 2026-05-07 17:50 | -15.86401 | -47.91482 | 3463 ft | 7 kts | 235° |
| 2026-05-07 17:50 | -15.86428 | -47.91523 | 3463 ft | 7 kts | 237° |
| 2026-05-07 17:50 | -15.86454 | -47.91564 | 3464 ft | 7 kts | 235° |
| 2026-05-07 17:50 | -15.86476 | -47.91606 | 3463 ft | 7 kts | 242° |
| 2026-05-07 17:51 | -15.86513 | -47.91629 | 3464 ft | 6 kts | 187° |
| 2026-05-07 17:51 | -15.86563 | -47.91627 | 3464 ft | 9 kts | 176° |
| 2026-05-07 17:51 | -15.86660 | -47.91620 | 3464 ft | 15 kts | 176° |
| 2026-05-07 17:51 | -15.86761 | -47.91613 | 3464 ft | 14 kts | 176° |
| 2026-05-07 17:52 | -15.86859 | -47.91607 | 3464 ft | 14 kts | 179° |
| 2026-05-07 17:52 | -15.86900 | -47.91684 | 3463 ft | 13 kts | 265° |
| 2026-05-07 17:52 | -15.86906 | -47.91776 | 3464 ft | 12 kts | 266° |
| 2026-05-07 17:52 | -15.86884 | -47.91825 | 3463 ft | 7 kts | 346° |
| 2026-05-07 17:53 | -15.86852 | -47.91829 | 3464 ft | 0 kts | 355° |